| Date | Time | Temp. (oF) | Dew Point (oF) | Rel. Hum. (%) | Press. (in.) | Wind Dir. | Wind Speed (mph) | Hourly Rainfall (in.) |
|
|---|---|---|---|---|---|---|---|---|---|
| 1 | 08/03 | 00:00 | 75 | 64 | 69 | 30.18 | S | 6 | 0.00 |
| 2 | 08/02 | 23:00 | 76 | 65 | 71 | 30.19 | SSW | 4 | 0.00 |
| 3 | 08/02 | 22:00 | 77 | 65 | 69 | 30.19 | S | 3 | 0.00 |
| 4 | 08/02 | 21:00 | 79 | 65 | 64 | 30.17 | S | 3 | 0.00 |
| 5 | 08/02 | 20:00 | 83 | 62 | 51 | 30.16 | S | 7 | 0.00 |
| 6 | 08/02 | 19:00 | 87 | 59 | 40 | 30.15 | SSW | 7 | 0.00 |
| 7 | 08/02 | 18:00 | 89 | 57 | 35 | 30.16 | S | 12 | 0.00 |
| 8 | 08/02 | 17:00 | 90 | 56 | 33 | 30.17 | SW | 5 | 0.00 |
| 9 | 08/02 | 16:00 | 91 | 56 | 32 | 30.20 | S | 10 | 0.00 |
| 10 | 08/02 | 15:00 | 91 | 54 | 30 | 30.23 | S | 12 | 0.00 |
| 11 | 08/02 | 14:00 | 90 | 55 | 32 | 30.25 | S | 9 | 0.00 |
| 12 | 08/02 | 13:00 | 88 | 55 | 34 | 30.29 | S | 5 | 0.00 |
| 13 | 08/02 | 12:00 | 86 | 60 | 43 | 30.30 | S | 10 | 0.00 |
| 14 | 08/02 | 11:00 | 82 | 65 | 57 | 30.32 | SSE | 1 | 0.00 |
| 15 | 08/02 | 10:00 | 78 | 64 | 63 | 30.33 | SW | 4 | 0.00 |
| 16 | 08/02 | 09:00 | 73 | 62 | 70 | 30.35 | SSW | 4 | 0.00 |
| 17 | 08/02 | 08:00 | 68 | 61 | 80 | 30.35 | SSE | 2 | 0.00 |
| 18 | 08/02 | 07:00 | 65 | 61 | 88 | 30.35 | NNW | 0 | 0.00 |
| 19 | 08/02 | 06:00 | 64 | 60 | 87 | 30.35 | NW | 1 | 0.00 |
| 20 | 08/02 | 05:00 | 66 | 59 | 81 | 30.34 | NNW | 0 | 0.00 |
| 21 | 08/02 | 04:00 | 67 | 59 | 77 | 30.34 | SSW | 0 | 0.00 |
| 22 | 08/02 | 03:00 | 70 | 61 | 74 | 30.33 | SW | 0 | 0.00 |
| 23 | 08/02 | 02:00 | 71 | 61 | 72 | 30.33 | SSE | 0 | 0.00 |
| 24 | 08/02 | 01:00 | 72 | 61 | 70 | 30.35 | SSW | 2 | 0.00 |